createdAt,value
2023-03-21T00:02:55.372Z,99070.30
2023-03-21T00:09:00.254Z,99072.14
2023-03-21T00:15:05.147Z,99068.62
2023-03-21T00:21:39.234Z,99066.08
2023-03-21T00:27:50.021Z,99065.40
2023-03-21T00:33:51.395Z,99056.77
2023-03-21T00:39:53.535Z,99055.19
2023-03-21T00:45:57.732Z,99047.84
2023-03-21T00:52:14.733Z,99043.14
2023-03-21T00:58:18.617Z,99038.04
2023-03-21T01:04:20.576Z,99035.93
2023-03-21T01:10:22.893Z,99033.44
2023-03-21T01:16:24.781Z,99037.36
2023-03-21T01:22:27.307Z,99033.45
2023-03-21T01:28:29.670Z,99032.81
2023-03-21T01:34:31.628Z,99037.95
2023-03-21T01:40:33.301Z,99034.64
2023-03-21T01:47:12.132Z,99038.88
2023-03-21T01:53:22.074Z,99033.41
2023-03-21T01:59:43.515Z,99037.05
2023-03-21T02:06:29.534Z,99033.04
2023-03-21T02:12:32.686Z,99033.04
2023-03-21T02:18:45.408Z,99031.81
2023-03-21T02:25:48.832Z,99031.77
2023-03-21T02:32:36.646Z,99029.36
2023-03-21T02:39:00.615Z,99028.36
2023-03-21T02:45:19.074Z,99031.39
2023-03-21T02:51:27.151Z,99030.55
2023-03-21T02:57:40.074Z,99028.41
2023-03-21T03:03:45.152Z,99032.42
2023-03-21T03:10:14.662Z,99028.55
2023-03-21T03:16:28.069Z,99031.98
2023-03-21T03:22:43.842Z,99032.73
2023-03-21T03:28:48.719Z,99035.21
2023-03-21T03:34:55.639Z,99032.35
2023-03-21T03:41:19.323Z,99035.34
2023-03-21T03:47:57.196Z,99034.69
2023-03-21T03:54:05.994Z,99034.06
2023-03-21T04:00:12.426Z,99036.98
2023-03-21T04:06:21.380Z,99035.61
2023-03-21T04:12:24.941Z,99034.11
2023-03-21T04:18:58.601Z,99030.61
2023-03-21T04:25:04.635Z,99025.10
2023-03-21T04:31:24.362Z,99028.41
2023-03-21T04:37:27.846Z,99024.96
2023-03-21T04:43:30.294Z,99026.60
2023-03-21T04:49:35.657Z,99028.52
2023-03-21T04:55:40.248Z,99032.48
2023-03-21T05:01:43.269Z,99040.71
2023-03-21T05:07:44.955Z,99043.09
2023-03-21T05:13:51.882Z,99043.77
2023-03-21T05:19:59.729Z,99040.17
2023-03-21T05:26:01.745Z,99044.05
2023-03-21T05:32:26.125Z,99048.45
2023-03-21T05:38:27.791Z,99053.59
2023-03-21T05:44:29.932Z,99062.30
2023-03-21T05:50:32.709Z,99063.77
2023-03-21T05:56:42.243Z,99069.35
2023-03-21T06:02:47.025Z,99072.56
2023-03-21T06:09:07.022Z,99074.66
2023-03-21T06:15:09.272Z,99076.69
2023-03-21T06:21:20.038Z,99068.38
2023-03-21T06:27:23.266Z,99070.05
2023-03-21T06:33:27.675Z,99076.33
2023-03-21T06:39:30.624Z,99070.98
2023-03-21T06:45:32.040Z,99072.93
2023-03-21T06:51:34.176Z,99080.80
2023-03-21T06:57:45.508Z,99078.48
2023-03-21T07:03:47.679Z,99083.85
2023-03-21T07:09:49.745Z,99083.31
2023-03-21T07:15:52.958Z,99082.82
2023-03-21T07:21:54.769Z,99083.65
2023-03-21T07:27:56.280Z,99083.30
2023-03-21T07:33:57.816Z,99076.27
2023-03-21T07:39:59.674Z,99070.02
2023-03-21T07:46:01.555Z,99068.58
2023-03-21T07:52:04.885Z,99077.36
2023-03-21T07:58:06.561Z,99080.23
2023-03-21T08:04:08.045Z,99080.20
2023-03-21T08:10:11.215Z,99081.67
2023-03-21T08:16:12.723Z,99076.05
2023-03-21T08:22:14.212Z,99079.29
2023-03-21T08:28:15.719Z,99082.84
2023-03-21T08:34:17.406Z,99091.44
2023-03-21T08:40:20.259Z,99095.98
2023-03-21T08:46:21.782Z,99104.08
2023-03-21T08:52:23.214Z,99108.79
2023-03-21T08:58:25.009Z,99119.11
2023-03-21T09:04:26.885Z,99123.81
2023-03-21T09:10:29.053Z,99124.34
2023-03-21T09:16:30.988Z,99125.84
2023-03-21T09:22:33.056Z,99118.66
2023-03-21T09:28:36.859Z,99124.65
2023-03-21T09:34:40.742Z,99119.88
2023-03-21T09:41:12.574Z,99125.40
2023-03-21T09:47:28.412Z,99121.08
2023-03-21T09:53:35.333Z,99129.58
2023-03-21T09:59:39.555Z,99124.89
2023-03-21T10:05:43.959Z,99122.96
2023-03-21T10:11:49.726Z,99123.26
2023-03-21T10:17:56.323Z,99123.80
2023-03-21T10:23:59.864Z,99128.33
2023-03-21T10:30:05.306Z,99132.55
2023-03-21T10:36:29.461Z,99128.66
2023-03-21T10:42:33.228Z,99129.16
2023-03-21T10:48:37.194Z,99127.96
2023-03-21T10:54:38.804Z,99133.62
2023-03-21T11:00:41.122Z,99127.42
2023-03-21T11:06:46.226Z,99123.55
2023-03-21T11:12:48.129Z,99115.79
2023-03-21T11:18:51.369Z,99118.09
2023-03-21T11:24:58.348Z,99120.61
2023-03-21T11:31:02.125Z,99117.98
2023-03-21T11:37:03.734Z,99109.93
2023-03-21T11:43:17.476Z,99106.63
2023-03-21T11:49:19.963Z,99105.91
2023-03-21T11:55:37.039Z,99101.89
2023-03-21T12:02:03.796Z,99108.23
2023-03-21T12:08:12.814Z,99108.02
2023-03-21T12:14:39.277Z,99097.45
2023-03-21T12:20:54.506Z,99094.49
2023-03-21T12:27:13.777Z,99090.11
2023-03-21T12:33:47.988Z,99085.52
2023-03-21T12:39:50.039Z,99089.17
2023-03-21T12:45:57.256Z,99083.16
2023-03-21T12:52:23.777Z,99078.10
2023-03-21T12:58:30.798Z,99073.90
2023-03-21T13:04:42.718Z,99071.59
2023-03-21T13:10:45.583Z,99073.38
2023-03-21T13:16:55.241Z,99071.76
2023-03-21T13:22:57.086Z,99064.96
2023-03-21T13:29:00.635Z,99058.86
2023-03-21T13:35:14.856Z,99053.42
2023-03-21T13:41:40.062Z,99053.01
2023-03-21T13:47:54.477Z,99048.50
2023-03-21T13:54:01.430Z,99048.10
2023-03-21T14:00:25.546Z,99054.34
2023-03-21T14:06:39.221Z,99058.90
2023-03-21T14:12:42.264Z,99054.45
2023-03-21T14:18:54.973Z,99051.80
2023-03-21T14:24:59.793Z,99057.23
2023-03-21T14:31:01.954Z,99065.41
2023-03-21T14:37:07.190Z,99071.78
2023-03-21T14:43:10.964Z,99067.33
2023-03-21T14:49:25.631Z,99067.10
2023-03-21T14:55:27.185Z,99063.92
2023-03-21T15:01:31.850Z,99059.19
2023-03-21T15:07:34.278Z,99059.59
2023-03-21T15:13:40.047Z,99055.44
2023-03-21T15:19:43.157Z,99059.46
2023-03-21T15:25:44.972Z,99048.88
2023-03-21T15:31:47.807Z,99045.18
2023-03-21T15:37:55.042Z,99046.80
2023-03-21T15:44:08.696Z,99048.08
2023-03-21T15:50:24.483Z,99045.66
2023-03-21T15:56:34.229Z,99050.55
2023-03-21T16:02:36.008Z,99049.97
2023-03-21T16:08:42.227Z,99049.44
2023-03-21T16:14:43.760Z,99048.89
2023-03-21T16:20:46.458Z,99051.81
2023-03-21T16:26:51.475Z,99050.02
2023-03-21T16:32:53.449Z,99051.93
2023-03-21T16:38:55.502Z,99055.14
2023-03-21T16:44:57.105Z,99052.95
2023-03-21T16:51:00.017Z,99057.67
2023-03-21T16:57:03.838Z,99055.41
2023-03-21T17:03:13.665Z,99061.06
2023-03-21T17:09:18.911Z,99054.41
2023-03-21T17:15:21.122Z,99054.14
2023-03-21T17:21:26.061Z,99066.97
2023-03-21T17:27:27.913Z,99071.02
2023-03-21T17:33:30.275Z,99075.15
2023-03-21T17:39:32.439Z,99079.39
2023-03-21T17:45:33.925Z,99084.23
2023-03-21T17:51:36.046Z,99087.04
2023-03-21T17:57:38.011Z,99088.02
2023-03-21T18:03:40.138Z,99085.54
2023-03-21T18:09:41.775Z,99090.23
2023-03-21T18:15:45.049Z,99097.34
2023-03-21T18:21:47.395Z,99102.02
2023-03-21T18:28:09.478Z,99107.91
2023-03-21T18:34:10.652Z,99105.83
2023-03-21T18:40:13.276Z,99103.38
2023-03-21T18:46:15.724Z,99104.70
2023-03-21T18:52:17.541Z,99106.47
2023-03-21T18:58:19.370Z,99110.75
2023-03-21T19:04:28.747Z,99110.51
2023-03-21T19:10:31.602Z,99108.48
2023-03-21T19:16:50.724Z,99103.78
2023-03-21T19:22:55.736Z,99105.42
2023-03-21T19:28:57.286Z,99109.16
2023-03-21T19:34:58.808Z,99109.09
2023-03-21T19:41:01.239Z,99109.80
2023-03-21T19:47:04.150Z,99117.32
2023-03-21T19:53:06.419Z,99116.63
2023-03-21T19:59:08.552Z,99115.39
2023-03-21T20:05:11.343Z,99123.52
2023-03-21T20:11:14.670Z,99123.55
2023-03-21T20:17:18.830Z,99124.30
2023-03-21T20:23:20.613Z,99121.11
2023-03-21T20:30:08.177Z,99119.79
2023-03-21T20:36:29.498Z,99119.48
2023-03-21T20:42:07.061Z,99115.41
2023-03-21T20:48:08.700Z,99113.20
2023-03-21T20:54:10.644Z,99114.25
2023-03-21T21:00:16.265Z,99111.33
2023-03-21T21:06:21.768Z,99107.71
2023-03-21T21:12:27.131Z,99114.27
2023-03-21T21:18:29.652Z,99109.71
2023-03-21T21:24:31.423Z,99110.95
2023-03-21T21:30:37.360Z,99111.80
2023-03-21T21:36:46.528Z,99108.11
2023-03-21T21:42:48.852Z,99108.81
2023-03-21T21:48:50.400Z,99112.42
2023-03-21T21:54:51.870Z,99106.54
2023-03-21T22:00:58.298Z,99111.81
2023-03-21T22:07:01.696Z,99110.27
2023-03-21T22:13:06.334Z,99112.46
2023-03-21T22:19:07.788Z,99110.05
2023-03-21T22:25:12.306Z,99107.85
2023-03-21T22:31:15.594Z,99110.74
2023-03-21T22:37:17.078Z,99104.70
2023-03-21T22:43:18.622Z,99098.65
2023-03-21T22:49:20.062Z,99099.67
2023-03-21T22:55:21.577Z,99095.04
2023-03-21T23:01:23.145Z,99096.91
2023-03-21T23:07:24.631Z,99098.89
2023-03-21T23:13:27.360Z,99091.98
2023-03-21T23:19:29.238Z,99089.02
2023-03-21T23:25:32.983Z,99088.02
2023-03-21T23:31:35.135Z,99086.36
2023-03-21T23:37:36.781Z,99082.39
2023-03-21T23:43:38.426Z,99081.36
2023-03-21T23:49:40.173Z,99078.12
2023-03-21T23:55:42.166Z,99075.38
